createdAt,value
2022-09-20T00:01:39.141Z,10.50
2022-09-20T00:04:09.076Z,10.50
2022-09-20T00:06:37.379Z,10.50
2022-09-20T00:09:06.635Z,10.40
2022-09-20T00:11:36.435Z,10.50
2022-09-20T00:14:08.539Z,10.40
2022-09-20T00:16:40.030Z,10.40
2022-09-20T00:19:10.796Z,10.40
2022-09-20T00:21:39.151Z,10.40
2022-09-20T00:24:07.534Z,10.40
2022-09-20T00:26:35.776Z,10.40
2022-09-20T00:29:04.226Z,10.40
2022-09-20T00:31:32.526Z,10.40
2022-09-20T00:34:18.111Z,10.40
2022-09-20T00:36:49.774Z,10.40
2022-09-20T00:39:17.941Z,10.30
2022-09-20T00:41:46.080Z,10.30
2022-09-20T00:44:52.209Z,10.30
2022-09-20T00:47:29.406Z,10.20
2022-09-20T00:50:02.466Z,10.10
2022-09-20T00:52:32.987Z,10.00
2022-09-20T00:55:02.091Z,10.00
2022-09-20T00:57:35.340Z,9.90
2022-09-20T01:00:06.225Z,9.80
2022-09-20T01:02:36.335Z,9.70
2022-09-20T01:05:04.960Z,9.70
2022-09-20T01:07:35.144Z,9.70
2022-09-20T01:10:03.175Z,9.70
2022-09-20T01:12:34.690Z,9.70
2022-09-20T01:15:05.193Z,9.80
2022-09-20T01:17:35.877Z,9.90
2022-09-20T01:20:20.223Z,9.90
2022-09-20T01:23:12.157Z,10.00
2022-09-20T01:25:59.260Z,10.10
2022-09-20T01:28:30.080Z,10.10
2022-09-20T01:31:07.247Z,10.20
2022-09-20T01:33:42.241Z,10.20
2022-09-20T01:36:15.111Z,10.30
2022-09-20T01:38:52.075Z,10.30
2022-09-20T01:41:25.630Z,10.30
2022-09-20T01:43:59.254Z,10.30
2022-09-20T01:46:32.418Z,10.30
2022-09-20T01:49:13.888Z,10.30
2022-09-20T01:52:15.302Z,10.30
2022-09-20T01:55:11.159Z,10.30
2022-09-20T01:58:19.720Z,10.40
2022-09-20T02:04:28.300Z,10.40
2022-09-20T02:07:08.972Z,10.40
2022-09-20T02:10:12.734Z,10.50
2022-09-20T02:12:55.265Z,10.40
2022-09-20T02:15:42.763Z,10.40
2022-09-20T02:18:21.660Z,10.40
2022-09-20T02:20:57.749Z,10.50
2022-09-20T02:23:39.401Z,10.40
2022-09-20T02:26:25.800Z,10.40
2022-09-20T02:28:58.795Z,10.40
2022-09-20T02:31:44.695Z,10.50
2022-09-20T02:34:48.656Z,10.40
2022-09-20T02:37:36.130Z,10.40
2022-09-20T02:40:18.401Z,10.30
2022-09-20T02:42:51.585Z,10.30
2022-09-20T02:45:27.305Z,10.20
2022-09-20T02:48:00.667Z,10.10
2022-09-20T02:50:38.442Z,10.00
2022-09-20T02:53:27.482Z,10.00
2022-09-20T02:56:06.204Z,10.00
2022-09-20T02:58:43.418Z,10.00
2022-09-20T03:01:21.005Z,10.00
2022-09-20T03:03:59.219Z,9.90
2022-09-20T03:06:34.524Z,10.00
2022-09-20T03:09:12.041Z,10.00
2022-09-20T03:11:49.908Z,10.00
2022-09-20T03:14:25.000Z,10.00
2022-09-20T03:17:03.907Z,10.00
2022-09-20T03:19:47.565Z,10.00
2022-09-20T03:22:26.424Z,10.00
2022-09-20T03:25:08.632Z,10.00
2022-09-20T03:27:45.677Z,10.10
2022-09-20T03:30:30.118Z,10.00
2022-09-20T03:33:07.419Z,9.90
2022-09-20T03:35:57.945Z,10.10
2022-09-20T03:38:49.478Z,10.10
2022-09-20T03:41:42.999Z,10.10
2022-09-20T03:44:39.304Z,10.10
2022-09-20T03:47:22.413Z,10.10
2022-09-20T03:50:20.087Z,10.20
2022-09-20T03:53:15.339Z,10.20
2022-09-20T03:56:00.878Z,10.30
2022-09-20T03:58:43.376Z,10.10
2022-09-20T04:01:33.440Z,10.10
2022-09-20T04:04:10.295Z,10.10
2022-09-20T04:06:59.204Z,10.00
2022-09-20T04:10:06.834Z,10.10
2022-09-20T04:12:44.444Z,10.10
2022-09-20T04:15:27.239Z,10.20
2022-09-20T04:18:02.045Z,10.10
2022-09-20T04:20:38.917Z,10.10
2022-09-20T04:23:15.661Z,10.10
2022-09-20T04:25:48.694Z,10.10
2022-09-20T04:28:22.653Z,10.10
2022-09-20T04:30:56.723Z,10.10
2022-09-20T04:33:29.342Z,10.00
2022-09-20T04:36:24.764Z,10.20
2022-09-20T04:39:01.878Z,10.20
2022-09-20T04:42:09.125Z,10.20
2022-09-20T04:45:03.485Z,10.30
2022-09-20T04:48:08.972Z,10.40
2022-09-20T04:50:58.756Z,10.40
2022-09-20T04:53:59.164Z,10.40
2022-09-20T04:56:48.424Z,10.30
2022-09-20T04:59:30.721Z,10.20
2022-09-20T05:02:33.869Z,10.10
2022-09-20T05:05:38.802Z,9.90
2022-09-20T05:08:35.476Z,9.70
2022-09-20T05:11:42.364Z,9.60
2022-09-20T05:14:26.160Z,9.50
2022-09-20T05:17:08.219Z,9.50
2022-09-20T05:19:48.435Z,9.40
2022-09-20T05:22:58.110Z,9.40
2022-09-20T05:25:45.138Z,9.40
2022-09-20T05:28:21.905Z,9.40
2022-09-20T05:30:54.477Z,9.50
2022-09-20T05:33:28.144Z,9.70
2022-09-20T05:36:05.419Z,10.00
2022-09-20T05:38:45.108Z,10.30
2022-09-20T05:41:23.832Z,10.50
2022-09-20T05:44:03.325Z,10.60
2022-09-20T05:46:41.077Z,10.80
2022-09-20T05:49:19.474Z,10.80
2022-09-20T05:51:59.841Z,10.80
2022-09-20T05:54:47.618Z,10.80
2022-09-20T05:57:30.976Z,10.90
2022-09-20T06:00:07.519Z,11.00
2022-09-20T06:02:43.583Z,11.10
2022-09-20T06:05:16.915Z,11.20
2022-09-20T06:08:08.688Z,11.30
2022-09-20T06:10:57.294Z,11.50
2022-09-20T06:13:39.265Z,11.60
2022-09-20T06:16:08.862Z,11.80
2022-09-20T06:18:44.287Z,11.80
2022-09-20T06:21:24.384Z,11.80
2022-09-20T06:23:53.751Z,12.00
2022-09-20T06:26:26.984Z,13.10
2022-09-20T06:29:00.707Z,14.60
2022-09-20T06:31:28.935Z,16.50
2022-09-20T06:33:59.234Z,18.30
2022-09-20T06:36:48.263Z,19.70
2022-09-20T06:39:42.085Z,20.60
2022-09-20T06:42:11.540Z,20.60
2022-09-20T06:44:41.210Z,19.60
2022-09-20T06:47:11.507Z,18.40
2022-09-20T06:49:41.831Z,17.20
2022-09-20T06:52:13.934Z,16.30
2022-09-20T06:54:45.803Z,15.70
2022-09-20T06:57:18.264Z,15.60
2022-09-20T06:59:46.639Z,15.70
2022-09-20T07:02:14.667Z,15.70
2022-09-20T07:04:43.667Z,15.80
2022-09-20T07:07:17.267Z,15.80
2022-09-20T07:09:45.265Z,16.00
2022-09-20T07:12:13.366Z,16.10
2022-09-20T07:14:42.725Z,16.20
2022-09-20T07:17:10.640Z,15.90
2022-09-20T07:19:38.474Z,15.40
2022-09-20T07:22:06.536Z,14.90
2022-09-20T07:24:34.819Z,14.60
2022-09-20T07:27:05.264Z,14.40
2022-09-20T07:29:35.145Z,14.30
2022-09-20T07:32:05.143Z,14.60
2022-09-20T07:34:33.122Z,15.20
2022-09-20T07:37:01.036Z,15.90
2022-09-20T07:39:28.980Z,16.90
2022-09-20T07:41:57.757Z,17.50
2022-09-20T07:44:25.891Z,17.90
2022-09-20T07:46:55.432Z,18.00
2022-09-20T07:49:26.060Z,17.70
2022-09-20T07:51:54.972Z,17.60
2022-09-20T07:54:23.277Z,17.60
2022-09-20T07:56:51.624Z,18.10
2022-09-20T07:59:19.607Z,18.00
2022-09-20T08:01:47.825Z,17.90
2022-09-20T08:04:15.866Z,17.90
2022-09-20T08:06:46.889Z,18.10
2022-09-20T08:09:15.479Z,17.80
2022-09-20T08:11:44.606Z,18.20
2022-09-20T08:14:16.264Z,18.00
2022-09-20T08:16:46.521Z,17.70
2022-09-20T08:19:17.774Z,17.60
2022-09-20T08:21:47.247Z,18.90
2022-09-20T08:24:16.433Z,20.90
2022-09-20T08:26:45.393Z,21.60
2022-09-20T08:29:15.017Z,21.00
2022-09-20T08:31:43.634Z,20.30
2022-09-20T08:34:14.009Z,19.50
2022-09-20T08:36:45.638Z,19.20
2022-09-20T08:42:14.582Z,18.30
2022-09-20T08:45:00.016Z,18.20
2022-09-20T08:47:31.201Z,18.10
2022-09-20T08:50:00.859Z,18.10
2022-09-20T08:52:39.909Z,17.70
2022-09-20T08:55:17.715Z,17.60
2022-09-20T08:57:50.242Z,17.50
2022-09-20T09:00:20.575Z,18.00
2022-09-20T09:02:51.015Z,17.60
2022-09-20T09:05:32.634Z,18.00
2022-09-20T09:08:04.506Z,18.10
2022-09-20T09:10:42.694Z,18.30
2022-09-20T09:13:20.505Z,18.40
2022-09-20T09:15:55.365Z,18.30
2022-09-20T09:18:31.742Z,17.90
2022-09-20T09:21:04.297Z,17.80
2022-09-20T09:23:41.431Z,17.90
2022-09-20T09:26:21.255Z,19.70
2022-09-20T09:29:09.832Z,21.70
2022-09-20T09:31:39.768Z,22.10
2022-09-20T09:34:25.026Z,22.00
2022-09-20T09:36:54.540Z,21.90
2022-09-20T09:39:28.228Z,21.90
2022-09-20T09:42:01.244Z,21.50
2022-09-20T09:44:32.858Z,20.50
2022-09-20T09:47:01.457Z,19.70
2022-09-20T09:49:36.370Z,19.80
2022-09-20T09:52:08.438Z,20.20
2022-09-20T09:54:39.423Z,20.40
2022-09-20T09:57:24.255Z,20.60
2022-09-20T10:00:07.656Z,21.30
2022-09-20T10:03:14.292Z,21.90
2022-09-20T10:05:49.946Z,22.80
2022-09-20T10:08:30.866Z,23.90
2022-09-20T10:11:10.458Z,24.50
2022-09-20T10:13:46.848Z,24.40
2022-09-20T10:16:29.403Z,25.00
2022-09-20T10:19:07.823Z,24.90
2022-09-20T10:21:45.465Z,23.20
2022-09-20T10:24:31.339Z,21.60
2022-09-20T10:27:19.222Z,20.30
2022-09-20T10:30:03.361Z,18.50
2022-09-20T10:32:46.686Z,18.90
2022-09-20T10:35:26.578Z,18.90
2022-09-20T10:38:18.666Z,19.40
2022-09-20T10:41:44.782Z,19.10
2022-09-20T10:44:32.167Z,18.70
2022-09-20T10:47:12.930Z,18.70
2022-09-20T10:49:50.806Z,18.60
2022-09-20T10:52:43.499Z,19.70
2022-09-20T10:55:34.807Z,20.50
2022-09-20T10:58:17.772Z,21.00
2022-09-20T11:00:56.705Z,21.80
2022-09-20T11:03:42.225Z,21.60
2022-09-20T11:06:19.851Z,21.60
2022-09-20T11:08:52.066Z,21.10
2022-09-20T11:11:24.040Z,20.40
2022-09-20T11:14:00.519Z,20.80
2022-09-20T11:16:34.537Z,20.50
2022-09-20T11:19:13.340Z,20.10
2022-09-20T11:21:48.257Z,20.60
2022-09-20T11:24:29.252Z,22.00
2022-09-20T11:27:01.289Z,21.00
2022-09-20T11:29:35.852Z,22.10
2022-09-20T11:32:13.686Z,22.40
2022-09-20T11:34:50.797Z,21.80
2022-09-20T11:37:20.667Z,20.80
2022-09-20T11:39:54.734Z,20.10
2022-09-20T11:42:26.930Z,20.30
2022-09-20T11:44:56.427Z,20.70
2022-09-20T11:47:52.843Z,21.30
2022-09-20T11:50:53.164Z,21.40
2022-09-20T11:53:37.226Z,21.40
2022-09-20T11:56:12.110Z,21.10
2022-09-20T11:58:48.844Z,21.10
2022-09-20T12:01:28.197Z,21.10
2022-09-20T12:04:20.545Z,21.10
2022-09-20T12:06:48.930Z,21.00
2022-09-20T12:09:29.107Z,20.70
2022-09-20T12:11:58.110Z,20.40
2022-09-20T12:14:29.150Z,19.90
2022-09-20T12:16:57.919Z,19.40
2022-09-20T12:19:41.129Z,18.80
2022-09-20T12:22:29.899Z,18.40
2022-09-20T12:25:40.786Z,18.00
2022-09-20T12:28:16.141Z,17.50
2022-09-20T12:30:44.117Z,17.20
2022-09-20T12:33:22.535Z,17.00
2022-09-20T12:36:16.258Z,16.90
2022-09-20T12:39:02.233Z,16.60
2022-09-20T12:41:47.370Z,17.20
2022-09-20T12:44:30.718Z,17.50
2022-09-20T12:47:01.971Z,17.80
2022-09-20T12:49:59.569Z,17.90
2022-09-20T12:52:54.028Z,18.00
2022-09-20T12:56:05.422Z,18.10
2022-09-20T12:58:40.088Z,18.00
2022-09-20T13:01:33.490Z,17.90
2022-09-20T13:04:39.419Z,17.90
2022-09-20T13:08:00.854Z,17.80
2022-09-20T13:10:39.388Z,17.80
2022-09-20T13:13:29.079Z,17.80
2022-09-20T13:15:59.109Z,17.80
2022-09-20T13:18:29.497Z,17.80
2022-09-20T13:21:00.361Z,17.50
2022-09-20T13:23:34.606Z,17.30
2022-09-20T13:26:04.617Z,17.00
2022-09-20T13:28:44.384Z,16.80
2022-09-20T13:31:27.637Z,16.70
2022-09-20T13:34:13.442Z,16.60
2022-09-20T13:36:42.899Z,16.60
2022-09-20T13:39:23.541Z,16.50
2022-09-20T13:41:51.542Z,16.40
2022-09-20T13:44:21.017Z,16.40
2022-09-20T13:46:51.097Z,16.30
2022-09-20T13:49:23.754Z,16.20
2022-09-20T13:51:52.433Z,16.20
2022-09-20T13:54:27.491Z,16.10
2022-09-20T13:56:57.455Z,16.10
2022-09-20T13:59:27.213Z,16.00
2022-09-20T14:01:56.550Z,16.40
2022-09-20T14:04:28.500Z,16.00
2022-09-20T14:06:59.070Z,16.00
2022-09-20T14:09:30.894Z,16.00
2022-09-20T14:12:00.164Z,16.10
2022-09-20T14:14:30.157Z,16.10
2022-09-20T14:17:00.619Z,16.20
2022-09-20T14:19:32.636Z,16.20
2022-09-20T14:22:04.885Z,16.20
2022-09-20T14:24:35.695Z,16.10
2022-09-20T14:27:08.065Z,16.00
2022-09-20T14:29:41.565Z,16.00
2022-09-20T14:32:22.809Z,15.90
2022-09-20T14:35:00.876Z,15.90
2022-09-20T14:37:32.183Z,15.90
2022-09-20T14:40:03.055Z,15.90
2022-09-20T14:42:35.759Z,16.00
2022-09-20T14:45:05.594Z,16.00
2022-09-20T14:47:39.570Z,16.80
2022-09-20T14:50:29.093Z,16.10
2022-09-20T14:53:03.724Z,16.10
2022-09-20T14:55:37.419Z,16.10
2022-09-20T14:58:11.222Z,16.00
2022-09-20T15:00:52.510Z,15.90
2022-09-20T15:03:27.426Z,15.80
2022-09-20T15:05:57.134Z,15.80
2022-09-20T15:08:25.667Z,15.90
2022-09-20T15:10:53.901Z,15.90
2022-09-20T15:13:22.115Z,15.90
2022-09-20T15:15:52.798Z,15.90
2022-09-20T15:18:23.672Z,15.90
2022-09-20T15:20:58.682Z,15.90
2022-09-20T15:23:28.520Z,15.90
2022-09-20T15:26:00.424Z,15.90
2022-09-20T15:28:28.408Z,15.90
2022-09-20T15:30:59.723Z,15.90
2022-09-20T15:33:31.629Z,15.90
2022-09-20T15:35:59.997Z,16.10
2022-09-20T15:38:30.106Z,16.00
2022-09-20T15:41:00.976Z,16.20
2022-09-20T15:43:30.456Z,16.30
2022-09-20T15:46:01.994Z,16.30
2022-09-20T15:48:32.096Z,16.20
2022-09-20T15:51:05.848Z,15.90
2022-09-20T15:53:38.576Z,15.70
2022-09-20T15:56:16.488Z,15.40
2022-09-20T15:58:47.907Z,15.30
2022-09-20T16:01:27.656Z,15.30
2022-09-20T16:03:57.702Z,15.40
2022-09-20T16:06:26.782Z,15.50
2022-09-20T16:08:57.062Z,15.70
2022-09-20T16:11:25.211Z,15.80
2022-09-20T16:13:57.568Z,15.90
2022-09-20T16:16:27.454Z,15.90
2022-09-20T16:19:13.227Z,15.80
2022-09-20T16:21:43.246Z,15.60
2022-09-20T16:24:13.491Z,15.50
2022-09-20T16:26:42.125Z,15.50
2022-09-20T16:29:11.281Z,15.40
2022-09-20T16:31:41.075Z,15.30
2022-09-20T16:34:16.965Z,15.20
2022-09-20T16:36:45.722Z,15.00
2022-09-20T16:39:17.273Z,14.80
2022-09-20T16:41:47.897Z,14.70
2022-09-20T16:44:16.678Z,14.50
2022-09-20T16:46:45.570Z,14.40
2022-09-20T16:49:14.225Z,14.30
2022-09-20T16:51:44.351Z,14.20
2022-09-20T16:54:15.333Z,13.90
2022-09-20T16:56:46.449Z,13.70
2022-09-20T16:59:17.180Z,13.50
2022-09-20T17:01:46.360Z,13.40
2022-09-20T17:04:15.087Z,13.30
2022-09-20T17:06:44.270Z,13.40
2022-09-20T17:09:14.933Z,13.40
2022-09-20T17:11:45.923Z,13.40
2022-09-20T17:14:15.092Z,13.40
2022-09-20T17:16:47.581Z,13.40
2022-09-20T17:19:18.490Z,13.50
2022-09-20T17:21:50.207Z,13.40
2022-09-20T17:24:21.848Z,13.40
2022-09-20T17:26:51.177Z,13.30
2022-09-20T17:29:20.697Z,13.30
2022-09-20T17:31:55.759Z,13.20
2022-09-20T17:34:25.496Z,13.10
2022-09-20T17:36:55.337Z,13.00
2022-09-20T17:39:25.177Z,12.90
2022-09-20T17:41:53.363Z,12.90
2022-09-20T17:44:21.822Z,12.90
2022-09-20T17:46:51.586Z,12.90
2022-09-20T17:49:20.971Z,12.90
2022-09-20T17:51:50.904Z,12.90
2022-09-20T17:54:20.278Z,12.80
2022-09-20T17:56:51.515Z,12.80
2022-09-20T17:59:20.775Z,12.80
2022-09-20T18:01:50.763Z,12.80
2022-09-20T18:04:21.008Z,12.80
2022-09-20T18:06:51.088Z,12.70
2022-09-20T18:09:20.779Z,12.60
2022-09-20T18:11:52.886Z,12.60
2022-09-20T18:14:22.675Z,12.50
2022-09-20T18:16:53.310Z,12.50
2022-09-20T18:19:22.709Z,12.40
2022-09-20T18:21:51.366Z,12.00
2022-09-20T18:24:19.478Z,12.20
2022-09-20T18:26:48.954Z,12.10
2022-09-20T18:29:18.374Z,12.00
2022-09-20T18:31:49.113Z,12.00
2022-09-20T18:34:19.076Z,11.90
2022-09-20T18:36:53.170Z,11.80
2022-09-20T18:39:23.180Z,11.80
2022-09-20T18:41:53.524Z,11.70
2022-09-20T18:44:22.906Z,11.70
2022-09-20T18:46:53.176Z,11.70
2022-09-20T18:49:21.910Z,11.60
2022-09-20T18:51:51.035Z,11.60
2022-09-20T18:54:20.235Z,11.50
2022-09-20T18:56:50.114Z,11.40
2022-09-20T18:59:22.178Z,11.40
2022-09-20T19:02:03.973Z,11.30
2022-09-20T19:04:57.952Z,11.30
2022-09-20T19:07:36.396Z,11.30
2022-09-20T19:10:13.137Z,11.30
2022-09-20T19:12:48.358Z,11.30
2022-09-20T19:15:40.159Z,11.30
2022-09-20T19:18:24.158Z,11.20
2022-09-20T19:20:58.777Z,11.10
2022-09-20T19:23:42.529Z,11.10
2022-09-20T19:26:21.042Z,11.10
2022-09-20T19:28:51.475Z,11.10
2022-09-20T19:31:27.212Z,11.10
2022-09-20T19:33:58.190Z,10.80
2022-09-20T19:36:35.562Z,11.00
2022-09-20T19:39:11.706Z,11.00
2022-09-20T19:41:50.207Z,11.00
2022-09-20T19:44:42.148Z,11.00
2022-09-20T19:47:27.694Z,11.00
2022-09-20T19:49:57.160Z,11.00
2022-09-20T19:52:26.070Z,10.90
2022-09-20T19:54:55.243Z,10.90
2022-09-20T19:57:29.481Z,10.80
2022-09-20T19:59:58.554Z,10.80
2022-09-20T20:02:29.685Z,10.80
2022-09-20T20:04:58.525Z,10.80
2022-09-20T20:07:33.177Z,10.80
2022-09-20T20:10:14.082Z,10.80
2022-09-20T20:12:58.995Z,10.70
2022-09-20T20:15:41.036Z,10.70
2022-09-20T20:18:22.176Z,10.60
2022-09-20T20:20:55.116Z,10.60
2022-09-20T20:23:54.503Z,10.50
2022-09-20T20:26:24.624Z,10.50
2022-09-20T20:28:54.046Z,10.40
2022-09-20T20:31:23.046Z,10.50
2022-09-20T20:37:40.738Z,10.50
2022-09-20T20:40:12.247Z,10.40
2022-09-20T20:42:41.657Z,10.40
2022-09-20T20:45:12.101Z,10.40
2022-09-20T20:47:40.970Z,10.30
2022-09-20T20:50:11.653Z,10.30
2022-09-20T20:52:41.077Z,10.30
2022-09-20T20:55:10.770Z,10.30
2022-09-20T21:01:22.005Z,10.30
2022-09-20T21:03:51.742Z,10.20
2022-09-20T21:10:10.579Z,10.20
2022-09-20T21:12:38.482Z,10.10
2022-09-20T21:15:07.398Z,10.10
2022-09-20T21:17:36.269Z,10.00
2022-09-20T21:20:04.905Z,10.00
2022-09-20T21:22:33.832Z,9.90
2022-09-20T21:25:01.826Z,10.00
2022-09-20T21:27:31.089Z,9.90
2022-09-20T21:29:59.082Z,9.80
2022-09-20T21:32:27.019Z,9.80
2022-09-20T21:34:55.211Z,9.70
2022-09-20T21:37:23.241Z,9.70
2022-09-20T21:39:51.141Z,9.60
2022-09-20T21:42:19.072Z,9.60
2022-09-20T21:44:48.337Z,9.60
2022-09-20T21:47:20.179Z,9.60
2022-09-20T21:49:48.498Z,9.60
2022-09-20T21:52:16.417Z,9.60
2022-09-20T21:54:45.733Z,9.60
2022-09-20T21:57:14.680Z,9.60
2022-09-20T21:59:42.610Z,9.50
2022-09-20T22:02:11.914Z,9.50
2022-09-20T22:04:39.875Z,9.50
2022-09-20T22:07:07.933Z,9.50
2022-09-20T22:09:35.868Z,9.50
2022-09-20T22:12:03.922Z,9.40
2022-09-20T22:14:31.819Z,9.40
2022-09-20T22:17:00.322Z,9.30
2022-09-20T22:19:31.315Z,9.30
2022-09-20T22:21:59.274Z,9.20
2022-09-20T22:24:27.197Z,9.10
2022-09-20T22:26:55.155Z,9.10
2022-09-20T22:29:23.140Z,9.10
2022-09-20T22:31:51.398Z,9.20
2022-09-20T22:34:20.923Z,9.10
2022-09-20T22:36:50.346Z,9.00
2022-09-20T22:39:18.369Z,9.00
2022-09-20T22:41:48.058Z,8.90
2022-09-20T22:44:16.445Z,8.90
2022-09-20T22:46:44.414Z,8.90
2022-09-20T22:49:12.439Z,8.90
2022-09-20T22:51:40.472Z,8.90
2022-09-20T22:54:12.256Z,8.90
2022-09-20T22:56:42.565Z,8.80
2022-09-20T22:59:12.066Z,8.80
2022-09-20T23:01:42.613Z,8.80
2022-09-20T23:04:12.465Z,8.70
2022-09-20T23:06:42.609Z,8.70
2022-09-20T23:09:14.374Z,8.60
2022-09-20T23:11:43.778Z,8.50
2022-09-20T23:14:13.594Z,8.60
2022-09-20T23:16:42.622Z,8.50
2022-09-20T23:19:12.152Z,8.50
2022-09-20T23:21:41.748Z,8.40
2022-09-20T23:24:13.704Z,8.60
2022-09-20T23:26:43.147Z,8.50
2022-09-20T23:29:13.233Z,8.60
2022-09-20T23:31:46.703Z,8.60
2022-09-20T23:34:16.656Z,8.60
2022-09-20T23:36:45.904Z,8.60
2022-09-20T23:39:16.322Z,8.60
2022-09-20T23:41:49.921Z,8.50
2022-09-20T23:44:18.938Z,8.50
2022-09-20T23:46:46.957Z,8.40
2022-09-20T23:49:14.908Z,8.50
2022-09-20T23:51:42.832Z,8.30
2022-09-20T23:54:10.810Z,8.20
2022-09-20T23:56:40.284Z,8.10
2022-09-20T23:59:08.218Z,8.10
